createdAt,value
2019-03-24T00:00:40.301Z,1018.44
2019-03-24T00:01:41.314Z,1018.45
2019-03-24T00:02:40.436Z,1018.40
2019-03-24T00:03:40.456Z,1018.39
2019-03-24T00:04:40.510Z,1018.38
2019-03-24T00:05:40.551Z,1018.39
2019-03-24T00:06:40.627Z,1018.34
2019-03-24T00:07:40.654Z,1018.33
2019-03-24T00:08:40.721Z,1018.32
2019-03-24T00:09:40.717Z,1018.33
2019-03-24T00:10:40.776Z,1018.30
2019-03-24T00:11:40.858Z,1018.37
2019-03-24T00:12:40.973Z,1018.30
2019-03-24T00:13:40.908Z,1018.32
2019-03-24T00:14:40.972Z,1018.33
2019-03-24T00:15:41.062Z,1018.33
2019-03-24T00:16:41.080Z,1018.33
2019-03-24T00:17:41.119Z,1018.31
2019-03-24T00:18:41.178Z,1018.31
2019-03-24T00:19:41.221Z,1018.30
2019-03-24T00:20:41.353Z,1018.32
2019-03-24T00:21:41.378Z,1018.30
2019-03-24T00:22:41.457Z,1018.27
2019-03-24T00:23:41.432Z,1018.28
2019-03-24T00:24:41.475Z,1018.26
2019-03-24T00:25:41.597Z,1018.27
2019-03-24T00:26:41.599Z,1018.29
2019-03-24T00:27:41.725Z,1018.29
2019-03-24T00:28:41.714Z,1018.30
2019-03-24T00:29:41.775Z,1018.31
2019-03-24T00:30:41.854Z,1018.31
2019-03-24T00:31:41.863Z,1018.30
2019-03-24T00:32:41.946Z,1018.30
2019-03-24T00:33:42.017Z,1018.28
2019-03-24T00:34:42.059Z,1018.29
2019-03-24T00:35:42.076Z,1018.28
2019-03-24T00:36:42.104Z,1018.26
2019-03-24T00:37:42.224Z,1018.26
2019-03-24T00:38:42.224Z,1018.27
2019-03-24T00:39:42.325Z,1018.25
2019-03-24T00:40:42.354Z,1018.24
2019-03-24T00:41:42.394Z,1018.20
2019-03-24T00:42:42.492Z,1018.20
2019-03-24T00:43:42.474Z,1018.17
2019-03-24T00:44:42.539Z,1018.21
2019-03-24T00:45:42.615Z,1018.19
2019-03-24T00:46:42.684Z,1018.18
2019-03-24T00:47:42.667Z,1018.15
2019-03-24T00:48:42.812Z,1018.17
2019-03-24T00:49:42.811Z,1018.12
2019-03-24T00:50:42.848Z,1018.13
2019-03-24T00:51:42.898Z,1018.12
2019-03-24T00:52:42.987Z,1018.11
2019-03-24T00:53:43.042Z,1018.10
2019-03-24T00:54:43.069Z,1018.11
2019-03-24T00:55:43.153Z,1018.07
2019-03-24T00:56:43.203Z,1018.05
2019-03-24T00:57:43.228Z,1018.06
2019-03-24T00:58:43.285Z,1018.04
2019-03-24T00:59:43.276Z,1018.04
2019-03-24T01:00:43.388Z,1018.06
2019-03-24T01:01:43.454Z,1018.06
2019-03-24T01:02:43.459Z,1018.03
2019-03-24T01:03:43.507Z,1018.06
2019-03-24T01:04:43.552Z,1018.03
2019-03-24T01:05:43.623Z,1018.04
2019-03-24T01:06:43.639Z,1018.06
2019-03-24T01:07:43.724Z,1018.01
2019-03-24T01:08:43.873Z,1017.99
2019-03-24T01:09:43.794Z,1018.02
2019-03-24T01:10:43.875Z,1017.93
2019-03-24T01:11:43.950Z,1017.94
2019-03-24T01:12:44.014Z,1017.97
2019-03-24T01:13:44.089Z,1017.97
2019-03-24T01:14:44.116Z,1017.96
2019-03-24T01:15:47.930Z,1017.98
2019-03-24T01:16:44.193Z,1017.99
2019-03-24T01:17:44.282Z,1017.98
2019-03-24T01:18:44.389Z,1017.98
2019-03-24T01:19:44.374Z,1017.96
2019-03-24T01:20:44.425Z,1017.97
2019-03-24T01:21:44.459Z,1017.92
2019-03-24T01:22:44.453Z,1017.92
2019-03-24T01:23:44.602Z,1017.93
2019-03-24T01:24:44.562Z,1017.98
2019-03-24T01:25:44.606Z,1018.00
2019-03-24T01:26:44.717Z,1018.02
2019-03-24T01:27:44.719Z,1017.98
2019-03-24T01:28:44.872Z,1017.98
2019-03-24T01:29:44.867Z,1017.98
2019-03-24T01:30:44.920Z,1018.00
2019-03-24T01:31:44.926Z,1017.94
2019-03-24T01:32:45.026Z,1017.90
2019-03-24T01:33:45.089Z,1017.92
2019-03-24T01:34:45.067Z,1017.86
2019-03-24T01:35:45.153Z,1017.89
2019-03-24T01:36:45.178Z,1017.89
2019-03-24T01:37:45.243Z,1017.93
2019-03-24T01:38:45.372Z,1017.88
2019-03-24T01:39:45.388Z,1017.88
2019-03-24T01:40:45.427Z,1017.91
2019-03-24T01:41:45.479Z,1017.88
2019-03-24T01:42:45.485Z,1017.89
2019-03-24T01:43:45.666Z,1017.88
2019-03-24T01:44:45.621Z,1017.86
2019-03-24T01:45:45.699Z,1017.89
2019-03-24T01:46:45.704Z,1017.87
2019-03-24T01:47:45.767Z,1017.89
2019-03-24T01:48:45.842Z,1017.85
2019-03-24T01:49:45.910Z,1017.89
2019-03-24T01:50:45.887Z,1017.88
2019-03-24T01:51:45.940Z,1017.91
2019-03-24T01:52:45.995Z,1017.96
2019-03-24T01:53:46.039Z,1017.92
2019-03-24T01:54:46.091Z,1017.88
2019-03-24T01:55:46.142Z,1017.87
2019-03-24T01:56:46.194Z,1017.84
2019-03-24T01:57:46.243Z,1017.83
2019-03-24T01:58:46.358Z,1017.81
2019-03-24T01:59:46.459Z,1017.81
2019-03-24T02:00:46.485Z,1017.80
2019-03-24T02:01:46.516Z,1017.80
2019-03-24T02:02:46.580Z,1017.78
2019-03-24T02:03:46.583Z,1017.76
2019-03-24T02:04:46.668Z,1017.77
2019-03-24T02:05:46.656Z,1017.80
2019-03-24T02:06:46.707Z,1017.81
2019-03-24T02:07:46.756Z,1017.77
2019-03-24T02:08:46.810Z,1017.75
2019-03-24T02:09:46.858Z,1017.72
2019-03-24T02:10:46.912Z,1017.74
2019-03-24T02:11:46.973Z,1017.71
2019-03-24T02:12:47.045Z,1017.72
2019-03-24T02:13:47.063Z,1017.67
2019-03-24T02:14:47.117Z,1017.69
2019-03-24T02:15:47.169Z,1017.68
2019-03-24T02:16:47.219Z,1017.63
2019-03-24T02:17:47.269Z,1017.66
2019-03-24T02:18:47.321Z,1017.66
2019-03-24T02:19:47.373Z,1017.64
2019-03-24T02:20:47.422Z,1017.65
2019-03-24T02:21:47.475Z,1017.61
2019-03-24T02:22:47.526Z,1017.58
2019-03-24T02:23:47.577Z,1017.58
2019-03-24T02:24:47.630Z,1017.63
2019-03-24T02:25:47.682Z,1017.56
2019-03-24T02:26:47.733Z,1017.61
2019-03-24T02:27:47.782Z,1017.57
2019-03-24T02:28:47.835Z,1017.56
2019-03-24T02:29:47.884Z,1017.54
2019-03-24T02:30:47.938Z,1017.49
2019-03-24T02:31:47.991Z,1017.52
2019-03-24T02:32:48.044Z,1017.49
2019-03-24T02:33:48.093Z,1017.48
2019-03-24T02:34:48.142Z,1017.48
2019-03-24T02:35:48.204Z,1017.50
2019-03-24T02:36:48.256Z,1017.47
2019-03-24T02:37:48.297Z,1017.54
2019-03-24T02:38:48.353Z,1017.49
2019-03-24T02:39:48.413Z,1017.50
2019-03-24T02:40:48.451Z,1017.54
2019-03-24T02:41:48.502Z,1017.51
2019-03-24T02:42:48.554Z,1017.50
2019-03-24T02:43:48.624Z,1017.49
2019-03-24T02:44:48.661Z,1017.44
2019-03-24T02:45:48.750Z,1017.47
2019-03-24T02:46:48.759Z,1017.44
2019-03-24T02:47:48.899Z,1017.47
2019-03-24T02:48:48.864Z,1017.41
2019-03-24T02:49:48.913Z,1017.40
2019-03-24T02:50:48.964Z,1017.37
2019-03-24T02:51:49.019Z,1017.37
2019-03-24T02:52:49.072Z,1017.36
2019-03-24T02:53:49.118Z,1017.39
2019-03-24T02:54:49.172Z,1017.35
2019-03-24T02:55:49.221Z,1017.30
2019-03-24T02:56:49.273Z,1017.34
2019-03-24T02:57:49.332Z,1017.34
2019-03-24T02:58:49.400Z,1017.34
2019-03-24T02:59:49.428Z,1017.35
2019-03-24T03:00:49.480Z,1017.30
2019-03-24T03:01:49.531Z,1017.33
2019-03-24T03:02:49.583Z,1017.30
2019-03-24T03:03:49.635Z,1017.28
2019-03-24T03:04:49.691Z,1017.29
2019-03-24T03:05:49.738Z,1017.26
2019-03-24T03:06:49.788Z,1017.27
2019-03-24T03:07:49.841Z,1017.25
2019-03-24T03:08:49.893Z,1017.25
2019-03-24T03:09:49.945Z,1017.28
2019-03-24T03:10:49.995Z,1017.27
2019-03-24T03:11:50.048Z,1017.29
2019-03-24T03:12:50.099Z,1017.28
2019-03-24T03:13:50.148Z,1017.28
2019-03-24T03:14:50.197Z,1017.26
2019-03-24T03:15:50.252Z,1017.26
2019-03-24T03:16:50.304Z,1017.20
2019-03-24T03:17:50.356Z,1017.18
2019-03-24T03:18:50.408Z,1017.18
2019-03-24T03:19:53.377Z,1017.21
2019-03-24T03:20:50.507Z,1017.15
2019-03-24T03:21:50.559Z,1017.18
2019-03-24T03:22:50.611Z,1017.14
2019-03-24T03:23:50.663Z,1017.16
2019-03-24T03:24:50.715Z,1017.17
2019-03-24T03:25:50.769Z,1017.16
2019-03-24T03:26:50.818Z,1017.19
2019-03-24T03:27:50.873Z,1017.23
2019-03-24T03:28:50.920Z,1017.22
2019-03-24T03:29:50.972Z,1017.25
2019-03-24T03:30:51.023Z,1017.24
2019-03-24T03:31:51.099Z,1017.30
2019-03-24T03:32:51.145Z,1017.25
2019-03-24T03:33:51.177Z,1017.29
2019-03-24T03:34:51.238Z,1017.27
2019-03-24T03:35:51.281Z,1017.30
2019-03-24T03:36:51.343Z,1017.30
2019-03-24T03:37:51.468Z,1017.31
2019-03-24T03:38:51.490Z,1017.32
2019-03-24T03:39:57.040Z,1017.29
2019-03-24T03:40:51.553Z,1017.31
2019-03-24T03:41:51.589Z,1017.29
2019-03-24T03:42:51.640Z,1017.24
2019-03-24T03:43:51.693Z,1017.25
2019-03-24T03:44:51.744Z,1017.21
2019-03-24T03:45:51.794Z,1017.21
2019-03-24T03:46:53.289Z,1017.18
2019-03-24T03:47:51.899Z,1017.19
2019-03-24T03:48:51.950Z,1017.18
2019-03-24T03:49:52.001Z,1017.22
2019-03-24T03:50:52.052Z,1017.20
2019-03-24T03:51:52.103Z,1017.22
2019-03-24T03:52:52.155Z,1017.21
2019-03-24T03:53:52.206Z,1017.22
2019-03-24T03:54:52.271Z,1017.22
2019-03-24T03:55:52.313Z,1017.26
2019-03-24T03:56:52.363Z,1017.22
2019-03-24T03:57:52.419Z,1017.23
2019-03-24T03:58:52.470Z,1017.25
2019-03-24T03:59:52.533Z,1017.23
2019-03-24T04:00:52.569Z,1017.26
2019-03-24T04:01:52.618Z,1017.28
2019-03-24T04:02:52.672Z,1017.29
2019-03-24T04:03:52.721Z,1017.23
2019-03-24T04:04:52.775Z,1017.26
2019-03-24T04:05:52.828Z,1017.28
2019-03-24T04:06:52.896Z,1017.27
2019-03-24T04:07:52.926Z,1017.23
2019-03-24T04:08:52.981Z,1017.26
2019-03-24T04:09:53.030Z,1017.25
2019-03-24T04:10:53.085Z,1017.25
2019-03-24T04:11:53.134Z,1017.21
2019-03-24T04:12:53.186Z,1017.26
2019-03-24T04:13:53.247Z,1017.25
2019-03-24T04:14:53.299Z,1017.26
2019-03-24T04:15:53.339Z,1017.25
2019-03-24T04:17:06.399Z,1017.28
2019-03-24T04:17:53.440Z,1017.19
2019-03-24T04:18:53.493Z,1017.24
2019-03-24T04:19:53.547Z,1017.22
2019-03-24T04:20:53.597Z,1017.19
2019-03-24T04:21:53.652Z,1017.19
2019-03-24T04:22:53.699Z,1017.22
2019-03-24T04:23:53.752Z,1017.15
2019-03-24T04:24:53.803Z,1017.19
2019-03-24T04:25:53.854Z,1017.13
2019-03-24T04:26:53.917Z,1017.13
2019-03-24T04:27:53.956Z,1017.12
2019-03-24T04:28:54.012Z,1017.13
2019-03-24T04:29:54.058Z,1017.16
2019-03-24T04:30:54.111Z,1017.12
2019-03-24T04:31:54.163Z,1017.14
2019-03-24T04:32:54.211Z,1017.07
2019-03-24T04:33:54.264Z,1017.11
2019-03-24T04:34:54.315Z,1017.08
2019-03-24T04:35:54.367Z,1017.07
2019-03-24T04:36:54.425Z,1017.03
2019-03-24T04:37:54.468Z,1017.02
2019-03-24T04:38:54.519Z,1017.02
2019-03-24T04:39:54.574Z,1016.98
2019-03-24T04:40:54.624Z,1016.99
2019-03-24T04:41:54.675Z,1017.00
2019-03-24T04:42:54.731Z,1017.00
2019-03-24T04:43:54.777Z,1017.00
2019-03-24T04:44:54.827Z,1017.00
2019-03-24T04:45:54.879Z,1016.99
2019-03-24T04:46:54.930Z,1017.01
2019-03-24T04:47:54.981Z,1016.98
2019-03-24T04:48:55.032Z,1016.99
2019-03-24T04:49:55.093Z,1017.02
2019-03-24T04:50:55.135Z,1017.01
2019-03-24T04:51:55.187Z,1017.06
2019-03-24T04:52:55.240Z,1017.02
2019-03-24T04:53:55.289Z,1017.02
2019-03-24T04:54:59.257Z,1017.07
2019-03-24T04:55:55.399Z,1017.07
2019-03-24T04:56:55.445Z,1017.04
2019-03-24T04:57:55.496Z,1017.07
2019-03-24T04:58:55.546Z,1017.13
2019-03-24T04:59:55.599Z,1017.13
2019-03-24T05:00:55.650Z,1017.15
2019-03-24T05:01:55.701Z,1017.13
2019-03-24T05:02:55.753Z,1017.16
2019-03-24T05:03:55.813Z,1017.11
2019-03-24T05:04:55.856Z,1017.14
2019-03-24T05:05:55.906Z,1017.15
2019-03-24T05:06:55.958Z,1017.16
2019-03-24T05:07:56.011Z,1017.12
2019-03-24T05:08:56.720Z,1017.14
2019-03-24T05:09:56.112Z,1017.16
2019-03-24T05:10:56.166Z,1017.13
2019-03-24T05:11:56.215Z,1017.19
2019-03-24T05:12:56.267Z,1017.20
2019-03-24T05:13:56.318Z,1017.18
2019-03-24T05:14:56.370Z,1017.19
2019-03-24T05:15:56.426Z,1017.19
2019-03-24T05:16:56.474Z,1017.26
2019-03-24T05:17:56.523Z,1017.23
2019-03-24T05:18:56.575Z,1017.26
2019-03-24T05:19:56.626Z,1017.24
2019-03-24T05:20:56.679Z,1017.21
2019-03-24T05:21:56.730Z,1017.22
2019-03-24T05:22:56.781Z,1017.23
2019-03-24T05:23:56.834Z,1017.27
2019-03-24T05:24:56.888Z,1017.22
2019-03-24T05:25:56.937Z,1017.25
2019-03-24T05:26:56.988Z,1017.25
2019-03-24T05:27:57.040Z,1017.24
2019-03-24T05:28:57.093Z,1017.24
2019-03-24T05:29:57.143Z,1017.24
2019-03-24T05:30:57.195Z,1017.26
2019-03-24T05:31:57.248Z,1017.27
2019-03-24T05:32:57.298Z,1017.27
2019-03-24T05:33:57.349Z,1017.23
2019-03-24T05:34:57.401Z,1017.24
2019-03-24T05:35:57.455Z,1017.23
2019-03-24T05:36:57.510Z,1017.17
2019-03-24T05:37:57.556Z,1017.15
2019-03-24T05:38:57.608Z,1017.12
2019-03-24T05:39:57.660Z,1017.12
2019-03-24T05:40:57.710Z,1017.12
2019-03-24T05:41:57.761Z,1017.10
2019-03-24T05:42:57.814Z,1017.12
2019-03-24T05:43:57.866Z,1017.12
2019-03-24T05:44:57.917Z,1017.10
2019-03-24T05:45:57.970Z,1017.15
2019-03-24T05:46:58.021Z,1017.09
2019-03-24T05:47:58.076Z,1017.09
2019-03-24T05:48:58.124Z,1017.12
2019-03-24T05:49:58.176Z,1017.08
2019-03-24T05:50:58.227Z,1017.09
2019-03-24T05:51:58.281Z,1017.10
2019-03-24T05:52:58.330Z,1017.11
2019-03-24T05:53:58.384Z,1017.09
2019-03-24T05:54:58.434Z,1017.13
2019-03-24T05:55:58.485Z,1017.12
2019-03-24T05:56:59.126Z,1017.10
2019-03-24T05:57:58.589Z,1017.10
2019-03-24T05:58:58.640Z,1017.09
2019-03-24T05:59:58.693Z,1017.08
2019-03-24T06:00:58.745Z,1017.13
2019-03-24T06:01:58.799Z,1017.12
2019-03-24T06:02:58.849Z,1017.12
2019-03-24T06:03:58.900Z,1017.09
2019-03-24T06:04:58.952Z,1017.13
2019-03-24T06:05:59.005Z,1017.08
2019-03-24T06:06:59.055Z,1017.13
2019-03-24T06:07:59.109Z,1017.14
2019-03-24T06:08:59.160Z,1017.11
2019-03-24T06:09:59.210Z,1017.14
2019-03-24T06:10:59.263Z,1017.15
2019-03-24T06:11:59.315Z,1017.17
2019-03-24T06:12:59.366Z,1017.16
2019-03-24T06:13:59.418Z,1017.19
2019-03-24T06:14:59.470Z,1017.20
2019-03-24T06:15:59.522Z,1017.22
2019-03-24T06:16:59.574Z,1017.25
2019-03-24T06:17:59.625Z,1017.21
2019-03-24T06:18:59.715Z,1017.23
2019-03-24T06:19:59.729Z,1017.23
2019-03-24T06:20:59.782Z,1017.26
2019-03-24T06:21:59.833Z,1017.25
2019-03-24T06:22:59.885Z,1017.26
2019-03-24T06:23:59.937Z,1017.27
2019-03-24T06:24:59.990Z,1017.27
2019-03-24T06:26:00.040Z,1017.26
2019-03-24T06:27:00.138Z,1017.25
2019-03-24T06:28:00.147Z,1017.27
2019-03-24T06:29:00.197Z,1017.28
2019-03-24T06:30:00.332Z,1017.28
2019-03-24T06:31:01.794Z,1017.20
2019-03-24T06:32:00.351Z,1017.26
2019-03-24T06:33:00.403Z,1017.26
2019-03-24T06:34:00.455Z,1017.22
2019-03-24T06:35:00.508Z,1017.23
2019-03-24T06:36:00.558Z,1017.22
2019-03-24T06:37:00.644Z,1017.25
2019-03-24T06:38:00.664Z,1017.23
2019-03-24T06:39:00.716Z,1017.24
2019-03-24T06:40:00.767Z,1017.25
2019-03-24T06:41:00.820Z,1017.22
2019-03-24T06:42:00.872Z,1017.21
2019-03-24T06:43:00.923Z,1017.24
2019-03-24T06:44:00.986Z,1017.20
2019-03-24T06:45:01.034Z,1017.23
2019-03-24T06:46:01.081Z,1017.23
2019-03-24T06:47:01.133Z,1017.21
2019-03-24T06:48:01.185Z,1017.21
2019-03-24T06:49:01.237Z,1017.17
2019-03-24T06:50:01.289Z,1017.18
2019-03-24T06:51:01.341Z,1017.19
2019-03-24T06:52:01.394Z,1017.18
2019-03-24T06:53:01.444Z,1017.19
2019-03-24T06:54:01.497Z,1017.16
2019-03-24T06:55:01.550Z,1017.16
2019-03-24T06:56:01.604Z,1017.17
2019-03-24T06:57:01.658Z,1017.17
2019-03-24T06:58:01.707Z,1017.18
2019-03-24T06:59:01.764Z,1017.14
2019-03-24T07:00:01.814Z,1017.13
2019-03-24T07:01:01.864Z,1017.12
2019-03-24T07:02:01.919Z,1017.16
2019-03-24T07:03:01.977Z,1017.16
2019-03-24T07:04:02.023Z,1017.14
2019-03-24T07:05:02.079Z,1017.17
2019-03-24T07:06:02.126Z,1017.16
2019-03-24T07:07:02.431Z,1017.19
2019-03-24T07:08:02.233Z,1017.16
2019-03-24T07:09:02.868Z,1017.16
2019-03-24T07:10:02.881Z,1017.14
2019-03-24T07:11:03.061Z,1017.14
2019-03-24T07:12:02.441Z,1017.11
2019-03-24T07:13:02.495Z,1017.10
2019-03-24T07:14:02.553Z,1017.15
2019-03-24T07:15:02.602Z,1017.11
2019-03-24T07:16:02.652Z,1017.10
2019-03-24T07:17:02.706Z,1017.15
2019-03-24T07:18:08.481Z,1017.12
2019-03-24T07:19:02.811Z,1017.09
2019-03-24T07:20:02.863Z,1017.13
2019-03-24T07:21:02.915Z,1017.13
2019-03-24T07:22:02.969Z,1017.17
2019-03-24T07:23:03.021Z,1017.15
2019-03-24T07:24:03.075Z,1017.16
2019-03-24T07:25:03.128Z,1017.14
2019-03-24T07:26:03.180Z,1017.11
2019-03-24T07:27:03.244Z,1017.15
2019-03-24T07:28:03.287Z,1017.15
2019-03-24T07:29:03.340Z,1017.14
2019-03-24T07:30:03.391Z,1017.14
2019-03-24T07:31:03.447Z,1017.16
2019-03-24T07:32:03.497Z,1017.16
2019-03-24T07:33:03.552Z,1017.15
2019-03-24T07:34:03.602Z,1017.14
2019-03-24T07:35:03.663Z,1017.13
2019-03-24T07:36:03.710Z,1017.13
2019-03-24T07:37:03.763Z,1017.12
2019-03-24T07:38:03.816Z,1017.13
2019-03-24T07:39:03.870Z,1017.12
2019-03-24T07:40:03.921Z,1017.08
2019-03-24T07:41:03.976Z,1017.12
2019-03-24T07:42:05.596Z,1017.10
2019-03-24T07:43:04.083Z,1017.09
2019-03-24T07:44:04.134Z,1017.08
2019-03-24T07:45:04.189Z,1017.10
2019-03-24T07:46:04.241Z,1017.09
2019-03-24T07:47:04.294Z,1017.07
2019-03-24T07:48:04.367Z,1017.09
2019-03-24T07:49:04.402Z,1017.05
2019-03-24T07:50:04.453Z,1017.06
2019-03-24T07:51:04.508Z,1017.04
2019-03-24T07:52:04.560Z,1017.02
2019-03-24T07:53:04.614Z,1017.01
2019-03-24T07:54:04.668Z,1017.02
2019-03-24T07:55:04.720Z,1017.01
2019-03-24T07:56:04.774Z,1017.00
2019-03-24T07:57:04.828Z,1017.01
2019-03-24T07:58:04.882Z,1017.00
2019-03-24T07:59:04.934Z,1016.99
2019-03-24T08:00:04.989Z,1016.96
2019-03-24T08:01:05.043Z,1016.96
2019-03-24T08:02:05.101Z,1016.95
2019-03-24T08:03:05.149Z,1016.97
2019-03-24T08:04:06.074Z,1016.97
2019-03-24T08:05:05.259Z,1016.94
2019-03-24T08:06:05.313Z,1016.97
2019-03-24T08:07:05.366Z,1016.94
2019-03-24T08:08:05.423Z,1016.96
2019-03-24T08:09:05.481Z,1016.97
2019-03-24T08:10:05.543Z,1016.93
2019-03-24T08:11:05.585Z,1016.94
2019-03-24T08:12:05.640Z,1016.95
2019-03-24T08:13:05.691Z,1016.93
2019-03-24T08:14:05.745Z,1016.94
2019-03-24T08:15:05.800Z,1016.93
2019-03-24T08:16:05.856Z,1016.90
2019-03-24T08:17:05.910Z,1016.88
2019-03-24T08:18:05.965Z,1016.94
2019-03-24T08:19:06.021Z,1016.92
2019-03-24T08:20:06.075Z,1016.93
2019-03-24T08:21:06.131Z,1016.90
2019-03-24T08:22:06.184Z,1016.92
2019-03-24T08:23:06.239Z,1016.87
2019-03-24T08:24:06.295Z,1016.92
2019-03-24T08:25:06.354Z,1016.89
2019-03-24T08:26:06.404Z,1016.86
2019-03-24T08:27:06.460Z,1016.89
2019-03-24T08:28:06.518Z,1016.83
2019-03-24T08:29:06.586Z,1016.85
2019-03-24T08:30:06.624Z,1016.85
2019-03-24T08:31:06.686Z,1016.85
2019-03-24T08:32:06.736Z,1016.81
2019-03-24T08:33:06.791Z,1016.81
2019-03-24T08:34:06.846Z,1016.76
2019-03-24T08:35:06.902Z,1016.79
2019-03-24T08:36:07.006Z,1016.80
2019-03-24T08:37:07.014Z,1016.79
2019-03-24T08:38:07.069Z,1016.79
2019-03-24T08:39:07.123Z,1016.82
2019-03-24T08:40:07.179Z,1016.81
2019-03-24T08:41:07.237Z,1016.79
2019-03-24T08:42:07.290Z,1016.80
2019-03-24T08:43:07.347Z,1016.80
2019-03-24T08:44:07.400Z,1016.80
2019-03-24T08:45:07.457Z,1016.78
2019-03-24T08:46:07.513Z,1016.73
2019-03-24T08:47:07.568Z,1016.71
2019-03-24T08:48:07.625Z,1016.70
2019-03-24T08:49:07.681Z,1016.72
2019-03-24T08:50:07.739Z,1016.67
2019-03-24T08:51:07.795Z,1016.67
2019-03-24T08:52:08.514Z,1016.64
2019-03-24T08:53:07.904Z,1016.60
2019-03-24T08:54:07.960Z,1016.56
2019-03-24T08:55:08.068Z,1016.57
2019-03-24T08:56:08.072Z,1016.57
2019-03-24T08:57:08.130Z,1016.58
2019-03-24T08:58:08.184Z,1016.62
2019-03-24T08:59:08.244Z,1016.62
2019-03-24T09:00:08.297Z,1016.62
2019-03-24T09:01:08.353Z,1016.63
2019-03-24T09:02:08.409Z,1016.66
2019-03-24T09:03:08.466Z,1016.61
2019-03-24T09:04:08.522Z,1016.65
2019-03-24T09:05:08.582Z,1016.60
2019-03-24T09:06:08.634Z,1016.56
2019-03-24T09:07:08.691Z,1016.54
2019-03-24T09:08:08.766Z,1016.50
2019-03-24T09:09:08.817Z,1016.51
2019-03-24T09:10:08.862Z,1016.54
2019-03-24T09:11:08.918Z,1016.51
2019-03-24T09:12:08.975Z,1016.51
2019-03-24T09:13:09.031Z,1016.53
2019-03-24T09:14:09.086Z,1016.46
2019-03-24T09:15:09.145Z,1016.45
2019-03-24T09:16:09.203Z,1016.41
2019-03-24T09:17:09.260Z,1016.37
2019-03-24T09:18:09.316Z,1016.38
2019-03-24T09:19:09.373Z,1016.34
2019-03-24T09:20:09.429Z,1016.36
2019-03-24T09:21:09.487Z,1016.36
2019-03-24T09:22:09.543Z,1016.39
2019-03-24T09:23:10.708Z,1016.40
2019-03-24T09:24:09.657Z,1016.43
2019-03-24T09:25:09.715Z,1016.41
2019-03-24T09:26:09.772Z,1016.39
2019-03-24T09:27:09.830Z,1016.36
2019-03-24T09:28:09.889Z,1016.36
2019-03-24T09:29:09.943Z,1016.38
2019-03-24T09:30:09.999Z,1016.41
2019-03-24T09:31:10.620Z,1016.42
2019-03-24T09:32:10.115Z,1016.40
2019-03-24T09:33:10.174Z,1016.40
2019-03-24T09:34:10.230Z,1016.40
2019-03-24T09:35:10.287Z,1016.40
2019-03-24T09:36:10.345Z,1016.39
2019-03-24T09:37:10.409Z,1016.41
2019-03-24T09:38:10.462Z,1016.42
2019-03-24T09:39:10.521Z,1016.45
2019-03-24T09:40:10.578Z,1016.42
2019-03-24T09:41:10.636Z,1016.39
2019-03-24T09:42:10.693Z,1016.41
2019-03-24T09:43:10.751Z,1016.41
2019-03-24T09:44:10.813Z,1016.40
2019-03-24T09:45:10.868Z,1016.38
2019-03-24T09:46:10.924Z,1016.37
2019-03-24T09:47:10.983Z,1016.34
2019-03-24T09:48:11.042Z,1016.34
2019-03-24T09:49:11.100Z,1016.33
2019-03-24T09:50:11.158Z,1016.34
2019-03-24T09:51:11.216Z,1016.31
2019-03-24T09:52:11.274Z,1016.33
2019-03-24T09:53:11.334Z,1016.32
2019-03-24T09:54:11.436Z,1016.29
2019-03-24T09:55:11.449Z,1016.31
2019-03-24T09:56:11.507Z,1016.26
2019-03-24T09:57:11.566Z,1016.24
2019-03-24T09:58:11.623Z,1016.21
2019-03-24T09:59:11.682Z,1016.17
2019-03-24T10:00:11.741Z,1016.12
2019-03-24T10:01:11.800Z,1016.09
2019-03-24T10:02:11.859Z,1016.06
2019-03-24T10:03:11.914Z,1016.06
2019-03-24T10:04:11.973Z,1016.06
2019-03-24T10:05:12.033Z,1016.02
2019-03-24T10:06:12.091Z,1016.03
2019-03-24T10:07:12.148Z,1016.04
2019-03-24T10:08:12.207Z,1016.04
2019-03-24T10:09:12.266Z,1016.02
2019-03-24T10:10:12.323Z,1016.07
2019-03-24T10:11:12.381Z,1016.02
2019-03-24T10:12:12.440Z,1016.04
2019-03-24T10:13:12.499Z,1016.07
2019-03-24T10:14:12.557Z,1016.06
2019-03-24T10:15:12.615Z,1016.03
2019-03-24T10:16:12.673Z,1016.03
2019-03-24T10:17:12.732Z,1016.02
2019-03-24T10:18:12.790Z,1016.04
2019-03-24T10:19:14.314Z,1016.02
2019-03-24T10:20:12.907Z,1016.01
2019-03-24T10:21:12.970Z,1016.02
2019-03-24T10:22:13.026Z,1016.01
2019-03-24T10:23:13.081Z,1016.00
2019-03-24T10:24:13.140Z,1015.98
2019-03-24T10:25:13.197Z,1016.04
2019-03-24T10:26:13.257Z,1016.04
2019-03-24T10:27:13.318Z,1016.08
2019-03-24T10:28:13.374Z,1016.13
2019-03-24T10:29:13.433Z,1016.14
2019-03-24T10:30:13.489Z,1016.13
2019-03-24T10:31:17.586Z,1016.16
2019-03-24T10:32:13.606Z,1016.19
2019-03-24T10:33:13.665Z,1016.17
2019-03-24T10:34:13.723Z,1016.23
2019-03-24T10:35:13.782Z,1016.20
2019-03-24T10:36:13.839Z,1016.24
2019-03-24T10:37:13.900Z,1016.27
2019-03-24T10:38:13.956Z,1016.30
2019-03-24T10:39:14.016Z,1016.29
2019-03-24T10:40:14.610Z,1016.33
2019-03-24T10:41:14.132Z,1016.32
2019-03-24T10:42:14.196Z,1016.37
2019-03-24T10:43:14.252Z,1016.37
2019-03-24T10:44:14.312Z,1016.36
2019-03-24T10:45:14.370Z,1016.39
2019-03-24T10:46:14.427Z,1016.41
2019-03-24T10:47:14.488Z,1016.42
2019-03-24T10:48:14.550Z,1016.41
2019-03-24T10:49:24.350Z,1016.40
2019-03-24T10:50:14.750Z,1016.38
2019-03-24T10:51:14.725Z,1016.38
2019-03-24T10:52:14.787Z,1016.44
2019-03-24T10:53:14.845Z,1016.43
2019-03-24T10:54:14.905Z,1016.42
2019-03-24T10:55:14.966Z,1016.39
2019-03-24T10:56:15.025Z,1016.34
2019-03-24T10:57:15.086Z,1016.34
2019-03-24T10:58:15.145Z,1016.30
2019-03-24T10:59:15.205Z,1016.23
2019-03-24T11:00:15.266Z,1016.23
2019-03-24T11:01:15.326Z,1016.26
2019-03-24T11:02:15.390Z,1016.22
2019-03-24T11:03:15.449Z,1016.20
2019-03-24T11:04:16.013Z,1016.13
2019-03-24T11:05:15.568Z,1016.12
2019-03-24T11:06:15.628Z,1016.15
2019-03-24T11:07:15.687Z,1016.10
2019-03-24T11:08:15.749Z,1016.06
2019-03-24T11:09:15.810Z,1016.02
2019-03-24T11:10:15.873Z,1016.01
2019-03-24T11:11:15.939Z,1016.01
2019-03-24T11:12:15.991Z,1016.01
2019-03-24T11:13:16.052Z,1015.97
2019-03-24T11:14:16.114Z,1016.01
2019-03-24T11:15:16.716Z,1015.97
2019-03-24T11:16:16.232Z,1015.98
2019-03-24T11:17:16.293Z,1015.94
2019-03-24T11:18:16.356Z,1015.94
2019-03-24T11:19:16.414Z,1015.97
2019-03-24T11:20:16.475Z,1015.99
2019-03-24T11:21:16.535Z,1015.95
2019-03-24T11:22:16.594Z,1015.95
2019-03-24T11:23:16.662Z,1015.98
2019-03-24T11:24:16.716Z,1015.91
2019-03-24T11:25:16.776Z,1015.93
2019-03-24T11:26:16.837Z,1015.92
2019-03-24T11:27:16.936Z,1015.94
2019-03-24T11:28:19.169Z,1015.94
2019-03-24T11:29:17.017Z,1015.94
2019-03-24T11:30:17.074Z,1015.92
2019-03-24T11:31:17.142Z,1015.94
2019-03-24T11:32:17.195Z,1015.94
2019-03-24T11:33:17.257Z,1015.95
2019-03-24T11:34:17.318Z,1015.95
2019-03-24T11:35:17.378Z,1015.95
2019-03-24T11:36:17.436Z,1015.98
2019-03-24T11:37:17.504Z,1015.97
2019-03-24T11:38:17.555Z,1016.00
2019-03-24T11:39:17.616Z,1015.97
2019-03-24T11:40:17.680Z,1015.93
2019-03-24T11:41:17.737Z,1015.93
2019-03-24T11:42:17.796Z,1015.89
2019-03-24T11:43:17.856Z,1015.89
2019-03-24T11:44:17.918Z,1015.87
2019-03-24T11:45:17.977Z,1015.82
2019-03-24T11:46:18.036Z,1015.83
2019-03-24T11:47:26.263Z,1015.79
2019-03-24T11:48:18.160Z,1015.81
2019-03-24T11:49:18.239Z,1015.74
2019-03-24T11:50:18.275Z,1015.77
2019-03-24T11:51:18.334Z,1015.76
2019-03-24T11:52:18.395Z,1015.77
2019-03-24T11:53:18.454Z,1015.72
2019-03-24T11:54:18.514Z,1015.70
2019-03-24T11:55:18.573Z,1015.68
2019-03-24T11:56:18.633Z,1015.63
2019-03-24T11:57:18.721Z,1015.61
2019-03-24T11:58:18.748Z,1015.60
2019-03-24T11:59:18.808Z,1015.57
2019-03-24T12:00:18.868Z,1015.58
2019-03-24T12:01:18.925Z,1015.58
2019-03-24T12:02:18.984Z,1015.60
2019-03-24T12:03:19.052Z,1015.62
2019-03-24T12:04:19.103Z,1015.56
2019-03-24T12:05:19.163Z,1015.54
2019-03-24T12:06:19.218Z,1015.57